sensor_id;sensor_type;location;lat;lon;timestamp;pressure;altitude;pressure_sealevel;temperature;humidity
49813;BME280;35706;52.100;5.056;2023-04-08T00:00:23;102223.09;;;9.29;100.00
49813;BME280;35706;52.100;5.056;2023-04-08T00:01:23;102223.63;;;9.34;100.00
49813;BME280;35706;52.100;5.056;2023-04-08T00:02:24;102221.09;;;9.33;100.00
49813;BME280;35706;52.100;5.056;2023-04-08T00:03:25;102224.75;;;9.30;100.00
49813;BME280;35706;52.100;5.056;2023-04-08T00:04:25;102228.97;;;9.33;100.00
49813;BME280;35706;52.100;5.056;2023-04-08T00:05:26;102224.94;;;9.27;100.00
49813;BME280;35706;52.100;5.056;2023-04-08T00:06:27;102230.19;;;9.27;100.00
49813;BME280;35706;52.100;5.056;2023-04-08T00:07:27;102230.09;;;9.29;100.00
49813;BME280;35706;52.100;5.056;2023-04-08T00:08:27;102222.03;;;9.32;100.00
49813;BME280;35706;52.100;5.056;2023-04-08T00:09:28;102229.34;;;9.27;100.00
49813;BME280;35706;52.100;5.056;2023-04-08T00:10:28;102234.78;;;9.24;100.00
49813;BME280;35706;52.100;5.056;2023-04-08T00:11:28;102224.94;;;9.13;100.00
49813;BME280;35706;52.100;5.056;2023-04-08T00:12:29;102237.38;;;9.09;100.00
49813;BME280;35706;52.100;5.056;2023-04-08T00:13:29;102228.69;;;9.09;100.00
49813;BME280;35706;52.100;5.056;2023-04-08T00:14:30;102229.88;;;9.03;100.00
49813;BME280;35706;52.100;5.056;2023-04-08T00:15:31;102226.97;;;9.08;100.00
49813;BME280;35706;52.100;5.056;2023-04-08T00:16:31;102233.94;;;9.09;100.00
49813;BME280;35706;52.100;5.056;2023-04-08T00:17:32;102226.72;;;9.12;100.00
49813;BME280;35706;52.100;5.056;2023-04-08T00:18:32;102227.94;;;9.07;100.00
49813;BME280;35706;52.100;5.056;2023-04-08T00:19:32;102226.97;;;9.08;100.00
49813;BME280;35706;52.100;5.056;2023-04-08T00:20:33;102227.94;;;9.07;100.00
49813;BME280;35706;52.100;5.056;2023-04-08T00:21:34;102229.72;;;9.06;100.00
49813;BME280;35706;52.100;5.056;2023-04-08T00:22:34;102230.72;;;9.04;100.00
49813;BME280;35706;52.100;5.056;2023-04-08T00:23:35;102227.94;;;9.07;100.00
49813;BME280;35706;52.100;5.056;2023-04-08T00:24:36;102228.03;;;9.20;100.00
49813;BME280;35706;52.100;5.056;2023-04-08T00:25:36;102224.84;;;9.14;100.00
49813;BME280;35706;52.100;5.056;2023-04-08T00:26:37;102228.59;;;9.10;100.00
49813;BME280;35706;52.100;5.056;2023-04-08T00:27:37;102226.91;;;9.09;100.00
49813;BME280;35706;52.100;5.056;2023-04-08T00:28:37;102222.41;;;9.11;100.00
49813;BME280;35706;52.100;5.056;2023-04-08T00:29:37;102224.34;;;9.08;100.00
49813;BME280;35706;52.100;5.056;2023-04-08T00:30:38;102220.63;;;9.12;100.00
49813;BME280;35706;52.100;5.056;2023-04-08T00:31:38;102222.31;;;9.13;100.00
49813;BME280;35706;52.100;5.056;2023-04-08T00:32:38;102227.56;;;9.13;100.00
49813;BME280;35706;52.100;5.056;2023-04-08T00:33:38;102225.69;;;9.15;100.00
49813;BME280;35706;52.100;5.056;2023-04-08T00:34:39;102225.09;;;9.10;100.00
49813;BME280;35706;52.100;5.056;2023-04-08T00:35:39;102219.69;;;9.13;100.00
49813;BME280;35706;52.100;5.056;2023-04-08T00:36:40;102221.19;;;9.17;100.00
49813;BME280;35706;52.100;5.056;2023-04-08T00:37:40;102220.06;;;9.21;100.00
49813;BME280;35706;52.100;5.056;2023-04-08T00:38:40;102221.94;;;9.19;100.00
49813;BME280;35706;52.100;5.056;2023-04-08T00:39:40;102221.28;;;9.15;100.00
49813;BME280;35706;52.100;5.056;2023-04-08T00:40:41;102223.16;;;9.13;100.00
49813;BME280;35706;52.100;5.056;2023-04-08T00:41:41;102218.09;;;9.10;100.00
49813;BME280;35706;52.100;5.056;2023-04-08T00:42:42;102225.88;;;9.12;100.00
49813;BME280;35706;52.100;5.056;2023-04-08T00:43:42;102217.91;;;9.13;100.00
49813;BME280;35706;52.100;5.056;2023-04-08T00:44:43;102223.75;;;9.19;100.00
49813;BME280;35706;52.100;5.056;2023-04-08T00:45:43;102225.88;;;9.12;100.00
49813;BME280;35706;52.100;5.056;2023-04-08T00:46:43;102223.63;;;9.20;99.93
49813;BME280;35706;52.100;5.056;2023-04-08T00:47:44;102223.34;;;9.10;100.00
49813;BME280;35706;52.100;5.056;2023-04-08T00:48:45;102228.09;;;9.04;100.00
49813;BME280;35706;52.100;5.056;2023-04-08T00:49:46;102222.69;;;9.07;100.00
49813;BME280;35706;52.100;5.056;2023-04-08T00:50:46;102222.50;;;9.10;100.00
49813;BME280;35706;52.100;5.056;2023-04-08T00:51:47;102223.53;;;9.07;100.00
49813;BME280;35706;52.100;5.056;2023-04-08T00:52:47;102225.31;;;9.07;100.00
49813;BME280;35706;52.100;5.056;2023-04-08T00:53:47;102222.69;;;9.07;100.00
49813;BME280;35706;52.100;5.056;2023-04-08T00:54:48;102226.22;;;9.06;100.00
49813;BME280;35706;52.100;5.056;2023-04-08T00:55:48;102227.66;;;9.11;100.00
49813;BME280;35706;52.100;5.056;2023-04-08T00:56:48;102225.41;;;9.05;100.00
49813;BME280;35706;52.100;5.056;2023-04-08T00:57:49;102220.91;;;9.07;100.00
49813;BME280;35706;52.100;5.056;2023-04-08T00:58:50;102230.28;;;9.11;100.00
49813;BME280;35706;52.100;5.056;2023-04-08T00:59:54;102226.44;;;9.03;100.00
49813;BME280;35706;52.100;5.056;2023-04-08T01:01:02;102228.75;;;9.07;100.00
49813;BME280;35706;52.100;5.056;2023-04-08T01:02:20;102227.19;;;9.05;100.00
49813;BME280;35706;52.100;5.056;2023-04-08T01:04:52;102231.59;;;9.04;100.00
49813;BME280;35706;52.100;5.056;2023-04-08T01:06:10;102232.72;;;9.00;100.00
49813;BME280;35706;52.100;5.056;2023-04-08T01:07:30;102231.69;;;9.03;100.00
49813;BME280;35706;52.100;5.056;2023-04-08T01:08:32;102240.25;;;8.90;100.00
49813;BME280;35706;52.100;5.056;2023-04-08T01:09:37;102232.88;;;8.83;100.00
49813;BME280;35706;52.100;5.056;2023-04-08T01:10:39;102235.84;;;8.76;100.00
49813;BME280;35706;52.100;5.056;2023-04-08T01:11:43;102234.06;;;8.77;100.00
49813;BME280;35706;52.100;5.056;2023-04-08T01:12:49;102241.63;;;8.67;100.00
49813;BME280;35706;52.100;5.056;2023-04-08T01:13:53;102237.53;;;8.77;100.00
49813;BME280;35706;52.100;5.056;2023-04-08T01:14:57;102231.44;;;8.77;100.00
49813;BME280;35706;52.100;5.056;2023-04-08T01:16:00;102234.97;;;8.76;100.00
49813;BME280;35706;52.100;5.056;2023-04-08T01:17:01;102234.75;;;8.81;100.00
49813;BME280;35706;52.100;5.056;2023-04-08T01:18:05;102239.50;;;8.88;100.00
49813;BME280;35706;52.100;5.056;2023-04-08T01:19:07;102238.00;;;8.84;100.00
49813;BME280;35706;52.100;5.056;2023-04-08T01:20:10;102238.88;;;8.85;100.00
49813;BME280;35706;52.100;5.056;2023-04-08T01:21:12;102246.19;;;8.94;100.00
49813;BME280;35706;52.100;5.056;2023-04-08T01:22:33;102234.22;;;9.04;100.00
49813;BME280;35706;52.100;5.056;2023-04-08T01:24:00;102236.84;;;9.04;100.00
49813;BME280;35706;52.100;5.056;2023-04-08T01:25:05;102243.84;;;9.04;100.00
49813;BME280;35706;52.100;5.056;2023-04-08T01:26:10;102243.84;;;9.04;100.00
49813;BME280;35706;52.100;5.056;2023-04-08T01:27:13;102237.13;;;9.00;100.00
49813;BME280;35706;52.100;5.056;2023-04-08T01:28:17;102238.13;;;9.11;100.00
49813;BME280;35706;52.100;5.056;2023-04-08T01:29:18;102243.47;;;9.10;100.00
49813;BME280;35706;52.100;5.056;2023-04-08T01:30:19;102245.75;;;9.02;100.00
49813;BME280;35706;52.100;5.056;2023-04-08T01:31:23;102245.06;;;8.98;100.00
49813;BME280;35706;52.100;5.056;2023-04-08T01:32:25;102250.69;;;8.92;100.00
49813;BME280;35706;52.100;5.056;2023-04-08T01:33:27;102251.88;;;8.86;100.00
49813;BME280;35706;52.100;5.056;2023-04-08T01:34:28;102253.44;;;8.74;100.00
49813;BME280;35706;52.100;5.056;2023-04-08T01:35:30;102248.84;;;8.78;100.00
49813;BME280;35706;52.100;5.056;2023-04-08T01:36:31;102251.97;;;8.85;100.00
49813;BME280;35706;52.100;5.056;2023-04-08T01:37:35;102252.63;;;8.88;100.00
49813;BME280;35706;52.100;5.056;2023-04-08T01:38:37;102254.41;;;8.88;100.00
49813;BME280;35706;52.100;5.056;2023-04-08T01:39:40;102251.47;;;8.78;100.00
49813;BME280;35706;52.100;5.056;2023-04-08T01:40:41;102252.06;;;8.83;100.00
49813;BME280;35706;52.100;5.056;2023-04-08T01:41:42;102258.53;;;8.92;100.00
49813;BME280;35706;52.100;5.056;2023-04-08T01:42:43;102260.50;;;8.88;100.00
49813;BME280;35706;52.100;5.056;2023-04-08T01:43:45;102255.44;;;8.85;100.00
49813;BME280;35706;52.100;5.056;2023-04-08T01:44:46;102263.31;;;8.85;100.00
49813;BME280;35706;52.100;5.056;2023-04-08T01:45:48;102252.94;;;8.98;100.00
49813;BME280;35706;52.100;5.056;2023-04-08T01:46:50;102252.19;;;8.96;100.00
49813;BME280;35706;52.100;5.056;2023-04-08T01:47:51;102256.09;;;8.89;100.00
49813;BME280;35706;52.100;5.056;2023-04-08T01:48:53;102253.09;;;8.81;100.00
49813;BME280;35706;52.100;5.056;2023-04-08T01:49:54;102255.13;;;8.75;100.00
49813;BME280;35706;52.100;5.056;2023-04-08T01:50:56;102258.91;;;8.86;100.00
49813;BME280;35706;52.100;5.056;2023-04-08T01:51:57;102261.59;;;8.84;100.00
49813;BME280;35706;52.100;5.056;2023-04-08T01:52:59;102251.25;;;8.67;100.00
49813;BME280;35706;52.100;5.056;2023-04-08T01:54:01;102258.22;;;8.68;100.00
49813;BME280;35706;52.100;5.056;2023-04-08T01:55:01;102256.91;;;8.75;100.00
49813;BME280;35706;52.100;5.056;2023-04-08T01:56:05;102257.66;;;8.77;100.00
49813;BME280;35706;52.100;5.056;2023-04-08T01:57:07;102258.03;;;8.71;100.00
49813;BME280;35706;52.100;5.056;2023-04-08T01:58:13;102255.41;;;8.71;100.00
49813;BME280;35706;52.100;5.056;2023-04-08T01:59:15;102258.28;;;8.66;100.00
49813;BME280;35706;52.100;5.056;2023-04-08T02:00:19;102258.38;;;8.65;100.00
49813;BME280;35706;52.100;5.056;2023-04-08T02:01:21;102256.91;;;8.75;100.00
49813;BME280;35706;52.100;5.056;2023-04-08T02:02:25;102258.06;;;8.85;100.00
49813;BME280;35706;52.100;5.056;2023-04-08T02:03:27;102257.03;;;8.88;100.00
49813;BME280;35706;52.100;5.056;2023-04-08T02:04:28;102250.81;;;8.74;100.00
49813;BME280;35706;52.100;5.056;2023-04-08T02:05:29;102255.88;;;8.77;100.00
49813;BME280;35706;52.100;5.056;2023-04-08T02:06:29;102249.44;;;8.83;100.00
49813;BME280;35706;52.100;5.056;2023-04-08T02:07:31;102256.28;;;8.86;100.00
49813;BME280;35706;52.100;5.056;2023-04-08T02:08:33;102251.81;;;8.72;100.00
49813;BME280;35706;52.100;5.056;2023-04-08T02:09:34;102258.22;;;8.68;100.00
49813;BME280;35706;52.100;5.056;2023-04-08T02:10:34;102254.44;;;8.58;100.00
49813;BME280;35706;52.100;5.056;2023-04-08T02:11:34;102251.66;;;8.45;100.00
49813;BME280;35706;52.100;5.056;2023-04-08T02:12:35;102259.16;;;8.35;100.00
49813;BME280;35706;52.100;5.056;2023-04-08T02:13:35;102258.03;;;8.55;100.00
49813;BME280;35706;52.100;5.056;2023-04-08T02:14:36;102257.22;;;8.39;100.00
49813;BME280;35706;52.100;5.056;2023-04-08T02:15:41;102254.78;;;8.51;100.00
49813;BME280;35706;52.100;5.056;2023-04-08T02:16:49;102265.19;;;8.53;100.00
49813;BME280;35706;52.100;5.056;2023-04-08T02:17:55;102265.88;;;8.41;100.00
49813;BME280;35706;52.100;5.056;2023-04-08T02:19:08;102269.47;;;8.38;100.00
49813;BME280;35706;52.100;5.056;2023-04-08T02:20:13;102254.03;;;8.49;100.00
49813;BME280;35706;52.100;5.056;2023-04-08T02:21:17;102266.19;;;8.50;100.00
49813;BME280;35706;52.100;5.056;2023-04-08T02:22:49;102256.94;;;8.59;100.00
49813;BME280;35706;52.100;5.056;2023-04-08T02:23:53;102253.13;;;8.65;100.00
49813;BME280;35706;52.100;5.056;2023-04-08T02:24:54;102253.97;;;8.65;100.00
49813;BME280;35706;52.100;5.056;2023-04-08T02:25:55;102248.16;;;8.60;100.00
49813;BME280;35706;52.100;5.056;2023-04-08T02:26:57;102256.03;;;8.60;100.00
49813;BME280;35706;52.100;5.056;2023-04-08T02:27:58;102251.47;;;8.64;100.00
49813;BME280;35706;52.100;5.056;2023-04-08T02:29:02;102249.75;;;8.63;100.00
49813;BME280;35706;52.100;5.056;2023-04-08T02:30:05;102251.06;;;8.70;100.00
49813;BME280;35706;52.100;5.056;2023-04-08T02:31:11;102254.38;;;8.73;100.00
49813;BME280;35706;52.100;5.056;2023-04-08T02:32:15;102253.53;;;8.73;100.00
49813;BME280;35706;52.100;5.056;2023-04-08T02:33:19;102263.25;;;8.71;100.00
49813;BME280;35706;52.100;5.056;2023-04-08T02:34:20;102259.06;;;8.52;100.00
49813;BME280;35706;52.100;5.056;2023-04-08T02:35:21;102256.03;;;8.44;100.00
49813;BME280;35706;52.100;5.056;2023-04-08T02:36:22;102268.53;;;8.39;100.00
49813;BME280;35706;52.100;5.056;2023-04-08T02:37:23;102272.78;;;8.42;100.00
49813;BME280;35706;52.100;5.056;2023-04-08T02:38:23;102267.69;;;8.39;100.00
49813;BME280;35706;52.100;5.056;2023-04-08T02:39:32;102269.16;;;8.44;100.00
49813;BME280;35706;52.100;5.056;2023-04-08T02:40:33;102272.84;;;8.40;100.00
49813;BME280;35706;52.100;5.056;2023-04-08T02:41:34;102270.94;;;8.44;100.00
49813;BME280;35706;52.100;5.056;2023-04-08T02:42:34;102270.50;;;8.51;100.00
49813;BME280;35706;52.100;5.056;2023-04-08T02:43:35;102275.56;;;8.54;100.00
49813;BME280;35706;52.100;5.056;2023-04-08T02:44:35;102274.38;;;8.44;100.00
49813;BME280;35706;52.100;5.056;2023-04-08T02:45:43;102279.22;;;8.36;100.00
49813;BME280;35706;52.100;5.056;2023-04-08T02:46:43;102272.06;;;8.38;100.00
49813;BME280;35706;52.100;5.056;2023-04-08T02:47:44;102275.84;;;8.34;100.00
49813;BME280;35706;52.100;5.056;2023-04-08T02:48:44;102278.59;;;8.31;100.00
49813;BME280;35706;52.100;5.056;2023-04-08T02:49:44;102277.84;;;8.29;100.00
49813;BME280;35706;52.100;5.056;2023-04-08T02:50:45;102282.06;;;8.31;100.00
49813;BME280;35706;52.100;5.056;2023-04-08T02:51:45;102271.13;;;8.41;100.00
49813;BME280;35706;52.100;5.056;2023-04-08T02:52:46;102273.47;;;8.45;100.00
49813;BME280;35706;52.100;5.056;2023-04-08T02:53:46;102278.53;;;8.32;100.00
49813;BME280;35706;52.100;5.056;2023-04-08T02:54:46;102280.47;;;8.29;100.00
49813;BME280;35706;52.100;5.056;2023-04-08T02:55:46;102272.84;;;8.08;100.00
49813;BME280;35706;52.100;5.056;2023-04-08T02:56:47;102274.72;;;8.22;100.00
49813;BME280;35706;52.100;5.056;2023-04-08T02:57:47;102277.69;;;8.32;100.00
49813;BME280;35706;52.100;5.056;2023-04-08T02:58:48;102285.13;;;8.24;100.00
49813;BME280;35706;52.100;5.056;2023-04-08T02:59:48;102271.94;;;8.25;100.00
49813;BME280;35706;52.100;5.056;2023-04-08T03:00:48;102280.97;;;8.35;100.00
49813;BME280;35706;52.100;5.056;2023-04-08T03:01:49;102281.81;;;8.36;100.00
49813;BME280;35706;52.100;5.056;2023-04-08T03:02:50;102275.16;;;8.30;100.00
49813;BME280;35706;52.100;5.056;2023-04-08T03:03:50;102286.13;;;8.21;100.00
49813;BME280;35706;52.100;5.056;2023-04-08T03:04:50;102282.66;;;8.21;100.00
49813;BME280;35706;52.100;5.056;2023-04-08T03:05:51;102280.53;;;8.27;100.00
49813;BME280;35706;52.100;5.056;2023-04-08T03:06:51;102287.97;;;8.35;100.00
49813;BME280;35706;52.100;5.056;2023-04-08T03:07:52;102286.31;;;8.34;100.00
49813;BME280;35706;52.100;5.056;2023-04-08T03:08:52;102280.72;;;8.24;100.00
49813;BME280;35706;52.100;5.056;2023-04-08T03:09:53;102278.88;;;8.26;100.00
49813;BME280;35706;52.100;5.056;2023-04-08T03:10:54;102288.31;;;8.29;100.00
49813;BME280;35706;52.100;5.056;2023-04-08T03:11:55;102288.81;;;8.35;100.00
49813;BME280;35706;52.100;5.056;2023-04-08T03:12:55;102283.78;;;8.32;100.00
49813;BME280;35706;52.100;5.056;2023-04-08T03:13:55;102295.09;;;8.33;100.00
49813;BME280;35706;52.100;5.056;2023-04-08T03:14:56;102291.38;;;8.37;100.00
49813;BME280;35706;52.100;5.056;2023-04-08T03:15:56;102288.06;;;8.33;100.00
49813;BME280;35706;52.100;5.056;2023-04-08T03:16:56;102292.66;;;8.30;100.00
49813;BME280;35706;52.100;5.056;2023-04-08T03:17:57;102296.94;;;8.31;100.00
49813;BME280;35706;52.100;5.056;2023-04-08T03:18:57;102289.91;;;8.31;100.00
49813;BME280;35706;52.100;5.056;2023-04-08T03:19:57;102291.97;;;8.42;100.00
49813;BME280;35706;52.100;5.056;2023-04-08T03:20:58;102292.72;;;8.44;100.00
49813;BME280;35706;52.100;5.056;2023-04-08T03:21:58;102289.00;;;8.48;100.00
49813;BME280;35706;52.100;5.056;2023-04-08T03:22:58;102292.22;;;8.53;100.00
49813;BME280;35706;52.100;5.056;2023-04-08T03:23:59;102288.09;;;8.49;100.00
49813;BME280;35706;52.100;5.056;2023-04-08T03:25:00;102282.09;;;8.47;100.00
49813;BME280;35706;52.100;5.056;2023-04-08T03:26:00;102292.97;;;8.40;100.00
49813;BME280;35706;52.100;5.056;2023-04-08T03:27:01;102290.59;;;8.35;100.00
49813;BME280;35706;52.100;5.056;2023-04-08T03:28:01;102286.97;;;8.38;100.00
49813;BME280;35706;52.100;5.056;2023-04-08T03:29:01;102285.88;;;8.26;100.00
49813;BME280;35706;52.100;5.056;2023-04-08T03:30:02;102287.97;;;8.35;100.00
49813;BME280;35706;52.100;5.056;2023-04-08T03:31:03;102284.59;;;8.33;100.00
49813;BME280;35706;52.100;5.056;2023-04-08T03:32:03;102290.28;;;8.41;100.00
49813;BME280;35706;52.100;5.056;2023-04-08T03:33:04;102287.66;;;8.41;100.00
49813;BME280;35706;52.100;5.056;2023-04-08T03:34:07;102284.34;;;8.38;100.00
49813;BME280;35706;52.100;5.056;2023-04-08T03:35:08;102290.34;;;8.40;100.00
49813;BME280;35706;52.100;5.056;2023-04-08T03:36:08;102285.09;;;8.40;100.00
49813;BME280;35706;52.100;5.056;2023-04-08T03:37:09;102287.47;;;8.44;100.00
49813;BME280;35706;52.100;5.056;2023-04-08T03:38:09;102290.34;;;8.40;100.00
49813;BME280;35706;52.100;5.056;2023-04-08T03:39:09;102288.16;;;8.32;100.00
49813;BME280;35706;52.100;5.056;2023-04-08T03:40:10;102288.75;;;8.37;100.00
49813;BME280;35706;52.100;5.056;2023-04-08T03:41:11;102281.50;;;8.42;100.00
49813;BME280;35706;52.100;5.056;2023-04-08T03:42:11;102290.09;;;8.44;100.00
49813;BME280;35706;52.100;5.056;2023-04-08T03:43:12;102291.72;;;8.47;100.00
49813;BME280;35706;52.100;5.056;2023-04-08T03:44:12;102286.66;;;8.44;100.00
49813;BME280;35706;52.100;5.056;2023-04-08T03:45:13;102288.34;;;8.45;100.00
49813;BME280;35706;52.100;5.056;2023-04-08T03:46:13;102288.81;;;8.35;100.00
49813;BME280;35706;52.100;5.056;2023-04-08T03:47:14;102286.66;;;8.44;100.00
49813;BME280;35706;52.100;5.056;2023-04-08T03:48:14;102290.88;;;8.46;100.00
49813;BME280;35706;52.100;5.056;2023-04-08T03:49:14;102296.63;;;8.53;100.00
49813;BME280;35706;52.100;5.056;2023-04-08T03:50:15;102293.06;;;8.54;100.00
49813;BME280;35706;52.100;5.056;2023-04-08T03:51:15;102290.53;;;8.52;100.00
49813;BME280;35706;52.100;5.056;2023-04-08T03:52:15;102300.50;;;8.62;100.00
49813;BME280;35706;52.100;5.056;2023-04-08T03:53:16;102298.97;;;8.58;100.00
49813;BME280;35706;52.100;5.056;2023-04-08T03:54:16;102288.31;;;8.61;100.00
49813;BME280;35706;52.100;5.056;2023-04-08T03:55:16;102297.81;;;8.47;100.00
49813;BME280;35706;52.100;5.056;2023-04-08T03:56:17;102298.91;;;8.43;100.00
49813;BME280;35706;52.100;5.056;2023-04-08T03:57:17;102297.63;;;8.50;100.00
49813;BME280;35706;52.100;5.056;2023-04-08T03:58:18;102303.72;;;8.51;100.00
49813;BME280;35706;52.100;5.056;2023-04-08T03:59:18;102298.38;;;8.52;100.00
49813;BME280;35706;52.100;5.056;2023-04-08T04:00:18;102293.97;;;8.37;100.00
49813;BME280;35706;52.100;5.056;2023-04-08T04:01:19;102296.59;;;8.37;100.00
49813;BME280;35706;52.100;5.056;2023-04-08T04:02:19;102298.28;;;8.38;100.00
49813;BME280;35706;52.100;5.056;2023-04-08T04:03:19;102299.63;;;8.29;100.00
49813;BME280;35706;52.100;5.056;2023-04-08T04:04:20;102292.38;;;8.19;100.00
49813;BME280;35706;52.100;5.056;2023-04-08T04:05:21;102300.84;;;8.24;100.00
49813;BME280;35706;52.100;5.056;2023-04-08T04:06:21;102305.63;;;8.31;100.00
49813;BME280;35706;52.100;5.056;2023-04-08T04:07:21;102302.88;;;8.34;100.00
49813;BME280;35706;52.100;5.056;2023-04-08T04:08:21;102304.53;;;8.35;100.00
49813;BME280;35706;52.100;5.056;2023-04-08T04:09:22;102304.53;;;8.35;100.00
49813;BME280;35706;52.100;5.056;2023-04-08T04:10:22;102301.66;;;8.40;100.00
49813;BME280;35706;52.100;5.056;2023-04-08T04:11:23;102302.59;;;8.39;100.00
49813;BME280;35706;52.100;5.056;2023-04-08T04:12:23;102304.81;;;8.31;100.00
49813;BME280;35706;52.100;5.056;2023-04-08T04:13:23;102305.50;;;8.34;100.00
49813;BME280;35706;52.100;5.056;2023-04-08T04:14:24;102305.41;;;8.36;100.00
49813;BME280;35706;52.100;5.056;2023-04-08T04:15:24;102305.00;;;8.44;100.00
49813;BME280;35706;52.100;5.056;2023-04-08T04:16:25;102301.19;;;8.49;100.00
49813;BME280;35706;52.100;5.056;2023-04-08T04:17:25;102303.53;;;8.54;100.00
49813;BME280;35706;52.100;5.056;2023-04-08T04:18:26;102308.59;;;8.57;100.00
49813;BME280;35706;52.100;5.056;2023-04-08T04:19:29;102307.94;;;8.53;100.00
49813;BME280;35706;52.100;5.056;2023-04-08T04:20:30;102303.06;;;8.47;100.00
49813;BME280;35706;52.100;5.056;2023-04-08T04:21:30;102303.22;;;8.44;100.00
49813;BME280;35706;52.100;5.056;2023-04-08T04:22:31;102310.06;;;8.47;100.00
49813;BME280;35706;52.100;5.056;2023-04-08T04:23:32;102305.81;;;8.44;100.00
49813;BME280;35706;52.100;5.056;2023-04-08T04:24:32;102308.75;;;8.38;100.00
49813;BME280;35706;52.100;5.056;2023-04-08T04:25:32;102308.56;;;8.43;100.00
49813;BME280;35706;52.100;5.056;2023-04-08T04:26:33;102314.56;;;8.45;100.00
49813;BME280;35706;52.100;5.056;2023-04-08T04:27:33;102309.06;;;8.49;100.00
49813;BME280;35706;52.100;5.056;2023-04-08T04:28:34;102317.06;;;8.46;100.00
49813;BME280;35706;52.100;5.056;2023-04-08T04:29:35;102313.34;;;8.50;100.00
49813;BME280;35706;52.100;5.056;2023-04-08T04:30:36;102315.78;;;8.38;100.00
49813;BME280;35706;52.100;5.056;2023-04-08T04:31:37;102321.63;;;8.27;100.00
49813;BME280;35706;52.100;5.056;2023-04-08T04:32:38;102320.28;;;8.20;100.00
49813;BME280;35706;52.100;5.056;2023-04-08T04:33:38;102321.81;;;8.24;100.00
49813;BME280;35706;52.100;5.056;2023-04-08T04:34:38;102322.47;;;8.27;100.00
49813;BME280;35706;52.100;5.056;2023-04-08T04:35:39;102315.03;;;8.20;100.00
49813;BME280;35706;52.100;5.056;2023-04-08T04:36:39;102327.19;;;8.21;100.00
49813;BME280;35706;52.100;5.056;2023-04-08T04:37:40;102331.59;;;8.36;100.00
49813;BME280;35706;52.100;5.056;2023-04-08T04:38:40;102328.66;;;8.42;100.00
49813;BME280;35706;52.100;5.056;2023-04-08T04:39:42;102337.47;;;8.41;100.00
49813;BME280;35706;52.100;5.056;2023-04-08T04:40:42;102326.84;;;8.27;100.00
49813;BME280;35706;52.100;5.056;2023-04-08T04:41:43;102333.81;;;8.28;100.00
49813;BME280;35706;52.100;5.056;2023-04-08T04:42:43;102333.53;;;8.16;100.00
49813;BME280;35706;52.100;5.056;2023-04-08T04:43:44;102335.81;;;8.23;100.00
49813;BME280;35706;52.100;5.056;2023-04-08T04:44:44;102333.69;;;8.29;100.00
49813;BME280;35706;52.100;5.056;2023-04-08T04:45:45;102337.53;;;8.24;100.00
49813;BME280;35706;52.100;5.056;2023-04-08T04:46:45;102339.44;;;8.20;100.00
49813;BME280;35706;52.100;5.056;2023-04-08T04:47:46;102342.75;;;8.24;100.00
49813;BME280;35706;52.100;5.056;2023-04-08T04:48:46;102344.44;;;8.25;100.00
49813;BME280;35706;52.100;5.056;2023-04-08T04:49:46;102349.59;;;8.26;100.00
49813;BME280;35706;52.100;5.056;2023-04-08T04:50:54;102346.03;;;8.27;100.00
49813;BME280;35706;52.100;5.056;2023-04-08T04:51:55;102347.81;;;8.27;100.00
49813;BME280;35706;52.100;5.056;2023-04-08T04:52:55;102351.28;;;8.11;100.00
49813;BME280;35706;52.100;5.056;2023-04-08T04:53:56;102347.63;;;8.14;100.00
49813;BME280;35706;52.100;5.056;2023-04-08T04:54:57;102353.56;;;8.18;100.00
49813;BME280;35706;52.100;5.056;2023-04-08T04:55:58;102354.75;;;8.28;100.00
49813;BME280;35706;52.100;5.056;2023-04-08T04:57:00;102353.81;;;8.29;100.00
49813;BME280;35706;52.100;5.056;2023-04-08T04:58:01;102347.56;;;8.31;100.00
49813;BME280;35706;52.100;5.056;2023-04-08T04:59:01;102352.91;;;8.30;100.00
49813;BME280;35706;52.100;5.056;2023-04-08T05:00:01;102344.78;;;8.34;100.00
49813;BME280;35706;52.100;5.056;2023-04-08T05:01:02;102348.69;;;8.43;100.00
49813;BME280;35706;52.100;5.056;2023-04-08T05:02:03;102355.19;;;8.52;100.00
49813;BME280;35706;52.100;5.056;2023-04-08T05:03:03;102349.63;;;8.58;100.00
49813;BME280;35706;52.100;5.056;2023-04-08T05:04:03;102351.97;;;8.63;100.00
49813;BME280;35706;52.100;5.056;2023-04-08T05:05:04;102356.38;;;8.62;100.00
49813;BME280;35706;52.100;5.056;2023-04-08T05:06:05;102354.94;;;8.56;100.00
49813;BME280;35706;52.100;5.056;2023-04-08T05:07:06;102357.97;;;8.65;100.00
49813;BME280;35706;52.100;5.056;2023-04-08T05:08:06;102360.34;;;8.69;100.00
49813;BME280;35706;52.100;5.056;2023-04-08T05:09:06;102358.16;;;8.62;100.00
49813;BME280;35706;52.100;5.056;2023-04-08T05:10:07;102357.13;;;8.48;100.00
49813;BME280;35706;52.100;5.056;2023-04-08T05:11:10;102362.38;;;8.48;100.00
49813;BME280;35706;52.100;5.056;2023-04-08T05:12:10;102359.41;;;8.54;100.00
49813;BME280;35706;52.100;5.056;2023-04-08T05:13:11;102363.81;;;8.54;100.00
49813;BME280;35706;52.100;5.056;2023-04-08T05:14:12;102364.66;;;8.54;100.00
49813;BME280;35706;52.100;5.056;2023-04-08T05:15:12;102365.91;;;8.63;100.00
49813;BME280;35706;52.100;5.056;2023-04-08T05:16:13;102360.38;;;8.53;100.00
49813;BME280;35706;52.100;5.056;2023-04-08T05:17:13;102369.75;;;8.58;100.00
49813;BME280;35706;52.100;5.056;2023-04-08T05:18:13;102362.97;;;8.53;100.00
49813;BME280;35706;52.100;5.056;2023-04-08T05:19:14;102358.91;;;8.48;100.00
49813;BME280;35706;52.100;5.056;2023-04-08T05:20:14;102363.47;;;8.44;100.00
49813;BME280;35706;52.100;5.056;2023-04-08T05:21:14;102365.25;;;8.44;100.00
49813;BME280;35706;52.100;5.056;2023-04-08T05:22:15;102368.81;;;8.43;100.00
49813;BME280;35706;52.100;5.056;2023-04-08T05:23:15;102367.16;;;8.40;100.00